Mahanoy, Pennsylvania
Current Conditions -  °F | °C
As of 5:35 PM on Friday 24 Oct 2014 (Local Time) from KHZL Reporting Station
Clear Clear  
Wind Chill: 61°   Ceiling: Unl
Heat Index: 61°   Visibility: 10mi
Dew Point: 41°   Wind: 10mph
Humidity: 48%   Direction: 320°NW
Pressure: 29.88"   Gusts: 18mph
Location:  40.8208°N, 76.1672°W
Report Text: KHZL 242135Z AUTO 32009G16KT 10SM CLR 16/05 A2988 RMK AO2
Loading
Personal Weather Stations






























Interactive Weather Map
Tropical Storm Tracking
New forecast layout! Learn more

10-Day Weather Forecast

Advertisements
Track Severe Weather on mobile